sensor_id;sensor_type;location;lat;lon;timestamp;pressure;altitude;pressure_sealevel;temperature;humidity
76866;BME280;66647;52.124;5.416;2023-02-28T00:01:06;103324.63;;;1.22;79.89
76866;BME280;66647;52.124;5.416;2023-02-28T00:03:34;103317.56;;;1.27;80.32
76866;BME280;66647;52.124;5.416;2023-02-28T00:06:05;103312.81;;;1.29;80.09
76866;BME280;66647;52.124;5.416;2023-02-28T00:08:32;103315.06;;;1.32;80.27
76866;BME280;66647;52.124;5.416;2023-02-28T00:11:07;103324.00;;;1.33;80.48
76866;BME280;66647;52.124;5.416;2023-02-28T00:13:36;103323.81;;;1.34;80.48
76866;BME280;66647;52.124;5.416;2023-02-28T00:16:07;103330.88;;;1.35;80.43
76866;BME280;66647;52.124;5.416;2023-02-28T00:18:35;103328.41;;;1.41;80.82
76866;BME280;66647;52.124;5.416;2023-02-28T00:21:02;103331.53;;;1.44;80.47
76866;BME280;66647;52.124;5.416;2023-02-28T00:23:29;103331.13;;;1.47;80.70
76866;BME280;66647;52.124;5.416;2023-02-28T00:25:56;103329.91;;;1.50;80.31
76866;BME280;66647;52.124;5.416;2023-02-28T00:28:23;103333.44;;;1.50;80.42
76866;BME280;66647;52.124;5.416;2023-02-28T00:30:50;103328.88;;;1.51;80.85
76866;BME280;66647;52.124;5.416;2023-02-28T00:33:16;103328.66;;;1.52;80.39
76866;BME280;66647;52.124;5.416;2023-02-28T00:35:43;103323.88;;;1.54;81.09
76866;BME280;66647;52.124;5.416;2023-02-28T00:38:13;103321.59;;;1.58;80.76
76866;BME280;66647;52.124;5.416;2023-02-28T00:40:40;103318.28;;;1.56;80.59
76866;BME280;66647;52.124;5.416;2023-02-28T00:43:09;103323.47;;;1.57;80.46
76866;BME280;66647;52.124;5.416;2023-02-28T00:45:37;103316.84;;;1.60;80.67
76866;BME280;66647;52.124;5.416;2023-02-28T00:48:03;103326.59;;;1.61;80.96
76866;BME280;66647;52.124;5.416;2023-02-28T00:50:30;103323.91;;;1.61;80.91
76866;BME280;66647;52.124;5.416;2023-02-28T00:52:57;103317.47;;;1.62;80.66
76866;BME280;66647;52.124;5.416;2023-02-28T00:55:23;103322.88;;;1.62;81.11
76866;BME280;66647;52.124;5.416;2023-02-28T00:57:50;103315.34;;;1.64;81.22
76866;BME280;66647;52.124;5.416;2023-02-28T01:00:16;103318.06;;;1.64;80.80
76866;BME280;66647;52.124;5.416;2023-02-28T01:02:43;103326.59;;;1.67;80.83
76866;BME280;66647;52.124;5.416;2023-02-28T01:05:09;103317.66;;;1.67;80.78
76866;BME280;66647;52.124;5.416;2023-02-28T01:07:36;103313.91;;;1.68;80.92
76866;BME280;66647;52.124;5.416;2023-02-28T01:10:03;103322.84;;;1.68;81.01
76866;BME280;66647;52.124;5.416;2023-02-28T01:12:30;103325.56;;;1.68;81.25
76866;BME280;66647;52.124;5.416;2023-02-28T01:14:56;103323.47;;;1.71;81.52
76866;BME280;66647;52.124;5.416;2023-02-28T01:17:24;103317.03;;;1.72;80.78
76866;BME280;66647;52.124;5.416;2023-02-28T01:19:53;103321.22;;;1.74;80.82
76866;BME280;66647;52.124;5.416;2023-02-28T01:22:19;103318.50;;;1.74;81.14
76866;BME280;66647;52.124;5.416;2023-02-28T01:24:46;103324.53;;;1.76;81.03
76866;BME280;66647;52.124;5.416;2023-02-28T01:27:14;103319.97;;;1.77;80.58
76866;BME280;66647;52.124;5.416;2023-02-28T01:29:40;103312.69;;;1.77;81.29
76866;BME280;66647;52.124;5.416;2023-02-28T01:32:08;103303.72;;;1.77;80.95
76866;BME280;66647;52.124;5.416;2023-02-28T01:34:35;103302.50;;;1.79;80.93
76866;BME280;66647;52.124;5.416;2023-02-28T01:37:02;103314.97;;;1.80;80.81
76866;BME280;66647;52.124;5.416;2023-02-28T01:39:29;103308.72;;;1.80;80.90
76866;BME280;66647;52.124;5.416;2023-02-28T01:41:56;103306.66;;;1.82;81.48
76866;BME280;66647;52.124;5.416;2023-02-28T01:44:59;103310.19;;;1.82;80.96
76866;BME280;66647;52.124;5.416;2023-02-28T01:47:30;103309.34;;;1.82;81.30
76866;BME280;66647;52.124;5.416;2023-02-28T01:49:59;103299.38;;;1.82;81.40
76866;BME280;66647;52.124;5.416;2023-02-28T01:52:29;103305.63;;;1.83;80.92
76866;BME280;66647;52.124;5.416;2023-02-28T01:54:59;103296.47;;;1.84;81.33
76866;BME280;66647;52.124;5.416;2023-02-28T01:57:30;103305.22;;;1.86;81.30
76866;BME280;66647;52.124;5.416;2023-02-28T02:00:00;103301.66;;;1.85;81.09
76866;BME280;66647;52.124;5.416;2023-02-28T02:02:38;103289.81;;;1.86;80.93
76866;BME280;66647;52.124;5.416;2023-02-28T02:05:07;103290.66;;;1.87;80.86
76866;BME280;66647;52.124;5.416;2023-02-28T02:07:37;103289.81;;;1.86;80.92
76866;BME280;66647;52.124;5.416;2023-02-28T02:10:12;103285.44;;;1.85;81.28
76866;BME280;66647;52.124;5.416;2023-02-28T02:21:14;103280.44;;;1.82;81.26
76866;BME280;66647;52.124;5.416;2023-02-28T02:23:49;103284.19;;;1.81;81.91
76866;BME280;66647;52.124;5.416;2023-02-28T02:26:52;103276.91;;;1.82;81.04
76866;BME280;66647;52.124;5.416;2023-02-28T02:32:35;103290.22;;;1.83;81.67
76866;BME280;66647;52.124;5.416;2023-02-28T02:38:13;103289.59;;;1.81;81.80
76866;BME280;66647;52.124;5.416;2023-02-28T02:40:47;103292.94;;;1.83;82.17
76866;BME280;66647;52.124;5.416;2023-02-28T02:43:20;103288.56;;;1.82;82.44
76866;BME280;66647;52.124;5.416;2023-02-28T02:45:59;103287.31;;;1.85;81.64
76866;BME280;66647;52.124;5.416;2023-02-28T02:48:30;103289.81;;;1.86;81.92
76866;BME280;66647;52.124;5.416;2023-02-28T02:51:01;103284.41;;;1.86;82.39
76866;BME280;66647;52.124;5.416;2023-02-28T02:53:35;103285.03;;;1.88;81.89
76866;BME280;66647;52.124;5.416;2023-02-28T02:56:03;103285.66;;;1.90;82.37
76866;BME280;66647;52.124;5.416;2023-02-28T02:58:38;103291.06;;;1.90;82.39
76866;BME280;66647;52.124;5.416;2023-02-28T03:01:16;103292.72;;;1.91;82.61
76866;BME280;66647;52.124;5.416;2023-02-28T03:03:45;103284.41;;;1.93;83.01
76866;BME280;66647;52.124;5.416;2023-02-28T03:06:12;103287.94;;;1.93;83.00
76866;BME280;66647;52.124;5.416;2023-02-28T03:08:40;103292.31;;;1.94;82.63
76866;BME280;66647;52.124;5.416;2023-02-28T03:11:12;103292.31;;;1.94;82.97
76866;BME280;66647;52.124;5.416;2023-02-28T03:16:59;103292.91;;;1.96;83.16
76866;BME280;66647;52.124;5.416;2023-02-28T03:23:06;103290.22;;;1.96;83.30
76866;BME280;66647;52.124;5.416;2023-02-28T03:28:25;103297.28;;;1.97;83.14
76866;BME280;66647;52.124;5.416;2023-02-28T03:31:00;103297.28;;;1.97;83.30
76866;BME280;66647;52.124;5.416;2023-02-28T03:33:33;103295.63;;;1.96;83.91
76866;BME280;66647;52.124;5.416;2023-02-28T03:36:10;103291.88;;;1.97;83.24
76866;BME280;66647;52.124;5.416;2023-02-28T03:38:52;103297.28;;;1.97;83.64
76866;BME280;66647;52.124;5.416;2023-02-28T03:41:23;103290.84;;;1.98;83.34
76866;BME280;66647;52.124;5.416;2023-02-28T03:43:53;103291.03;;;1.97;83.79
76866;BME280;66647;52.124;5.416;2023-02-28T03:46:23;103302.69;;;1.97;83.58
76866;BME280;66647;52.124;5.416;2023-02-28T03:49:02;103303.13;;;1.94;84.03
76866;BME280;66647;52.124;5.416;2023-02-28T03:51:31;103302.50;;;1.92;83.90
76866;BME280;66647;52.124;5.416;2023-02-28T03:54:04;103305.63;;;1.89;83.97
76866;BME280;66647;52.124;5.416;2023-02-28T03:56:35;103310.41;;;1.87;83.36
76866;BME280;66647;52.124;5.416;2023-02-28T03:59:12;103315.81;;;1.87;83.47
76866;BME280;66647;52.124;5.416;2023-02-28T04:01:44;103302.50;;;1.86;82.91
76866;BME280;66647;52.124;5.416;2023-02-28T04:04:11;103313.31;;;1.86;82.54
76866;BME280;66647;52.124;5.416;2023-02-28T04:06:39;103305.41;;;1.84;82.66
76866;BME280;66647;52.124;5.416;2023-02-28T04:09:07;103302.72;;;1.84;82.83
76866;BME280;66647;52.124;5.416;2023-02-28T04:11:40;103306.44;;;1.83;82.33
76866;BME280;66647;52.124;5.416;2023-02-28T04:14:08;103311.84;;;1.83;81.12
76866;BME280;66647;52.124;5.416;2023-02-28T04:16:37;103316.00;;;1.79;78.17
76866;BME280;66647;52.124;5.416;2023-02-28T04:19:05;103314.56;;;1.77;76.35
76866;BME280;66647;52.124;5.416;2023-02-28T04:21:38;103311.44;;;1.73;75.28
76866;BME280;66647;52.124;5.416;2023-02-28T04:24:07;103307.06;;;1.72;75.99
76866;BME280;66647;52.124;5.416;2023-02-28T04:26:36;103317.25;;;1.70;75.54
76866;BME280;66647;52.124;5.416;2023-02-28T04:29:04;103316.63;;;1.68;75.20
76866;BME280;66647;52.124;5.416;2023-02-28T04:31:31;103319.72;;;1.65;75.11
76866;BME280;66647;52.124;5.416;2023-02-28T04:34:01;103320.16;;;1.62;74.83
76866;BME280;66647;52.124;5.416;2023-02-28T04:36:28;103312.88;;;1.56;74.25
76866;BME280;66647;52.124;5.416;2023-02-28T04:38:55;103321.19;;;1.54;73.65
76866;BME280;66647;52.124;5.416;2023-02-28T04:41:22;103313.06;;;1.54;74.04
76866;BME280;66647;52.124;5.416;2023-02-28T04:43:51;103321.38;;;1.53;74.88
76866;BME280;66647;52.124;5.416;2023-02-28T04:46:18;103333.03;;;1.53;74.57
76866;BME280;66647;52.124;5.416;2023-02-28T04:48:44;103333.03;;;1.53;74.95
76866;BME280;66647;52.124;5.416;2023-02-28T04:51:13;103325.31;;;1.50;74.56
76866;BME280;66647;52.124;5.416;2023-02-28T04:53:42;103317.41;;;1.49;74.86
76866;BME280;66647;52.124;5.416;2023-02-28T04:56:11;103318.66;;;1.46;74.95
76866;BME280;66647;52.124;5.416;2023-02-28T04:58:39;103323.84;;;1.41;75.03
76866;BME280;66647;52.124;5.416;2023-02-28T05:01:16;103326.94;;;1.38;75.58
76866;BME280;66647;52.124;5.416;2023-02-28T05:03:44;103330.44;;;1.32;76.43
76866;BME280;66647;52.124;5.416;2023-02-28T05:06:11;103324.84;;;1.27;76.65
76866;BME280;66647;52.124;5.416;2023-02-28T05:08:39;103323.38;;;1.24;77.38
76866;BME280;66647;52.124;5.416;2023-02-28T05:11:11;103321.72;;;1.23;78.07
76866;BME280;66647;52.124;5.416;2023-02-28T05:13:38;103312.97;;;1.21;78.91
76866;BME280;66647;52.124;5.416;2023-02-28T05:16:05;103318.97;;;1.17;78.55
76866;BME280;66647;52.124;5.416;2023-02-28T05:18:32;103329.34;;;1.13;79.39
76866;BME280;66647;52.124;5.416;2023-02-28T05:20:59;103321.00;;;1.08;79.87
76866;BME280;66647;52.124;5.416;2023-02-28T05:23:29;103331.19;;;1.06;80.22
76866;BME280;66647;52.124;5.416;2023-02-28T05:25:55;103329.53;;;1.05;80.54
76866;BME280;66647;52.124;5.416;2023-02-28T05:28:22;103335.97;;;1.04;80.93
76866;BME280;66647;52.124;5.416;2023-02-28T05:30:49;103330.56;;;1.04;80.68
76866;BME280;66647;52.124;5.416;2023-02-28T05:33:15;103328.50;;;1.06;80.68
76866;BME280;66647;52.124;5.416;2023-02-28T05:35:42;103323.72;;;1.08;80.87
76866;BME280;66647;52.124;5.416;2023-02-28T05:38:09;103325.59;;;1.08;80.85
76866;BME280;66647;52.124;5.416;2023-02-28T05:40:38;103329.13;;;1.08;81.01
76866;BME280;66647;52.124;5.416;2023-02-28T05:43:05;103328.09;;;1.09;81.60
76866;BME280;66647;52.124;5.416;2023-02-28T05:45:32;103318.75;;;1.12;81.74
76866;BME280;66647;52.124;5.416;2023-02-28T05:47:58;103326.66;;;1.13;81.77
76866;BME280;66647;52.124;5.416;2023-02-28T05:50:25;103334.56;;;1.15;82.03
76866;BME280;66647;52.124;5.416;2023-02-28T05:52:52;103327.28;;;1.15;82.05
76866;BME280;66647;52.124;5.416;2023-02-28T05:55:19;103335.78;;;1.12;82.24
76866;BME280;66647;52.124;5.416;2023-02-28T05:57:45;103332.91;;;1.14;82.42
76866;BME280;66647;52.124;5.416;2023-02-28T06:00:12;103334.13;;;1.11;82.53
76866;BME280;66647;52.124;5.416;2023-02-28T06:02:41;103328.50;;;1.06;83.30
76866;BME280;66647;52.124;5.416;2023-02-28T06:05:14;103330.34;;;1.06;83.41
76866;BME280;66647;52.124;5.416;2023-02-28T06:07:40;103325.16;;;1.04;83.37
76866;BME280;66647;52.124;5.416;2023-02-28T06:10:08;103322.44;;;1.04;83.93
76866;BME280;66647;52.124;5.416;2023-02-28T06:12:34;103323.47;;;0.96;83.48
76866;BME280;66647;52.124;5.416;2023-02-28T06:15:01;103327.41;;;0.94;84.23
76866;BME280;66647;52.124;5.416;2023-02-28T06:17:28;103324.06;;;0.92;84.65
76866;BME280;66647;52.124;5.416;2023-02-28T06:19:54;103329.44;;;0.85;84.62
76866;BME280;66647;52.124;5.416;2023-02-28T06:22:21;103326.31;;;0.82;84.70
76866;BME280;66647;52.124;5.416;2023-02-28T06:24:48;103315.25;;;0.77;84.33
76866;BME280;66647;52.124;5.416;2023-02-28T06:27:14;103311.72;;;0.76;85.38
76866;BME280;66647;52.124;5.416;2023-02-28T06:29:53;103313.19;;;0.79;85.32
76866;BME280;66647;52.124;5.416;2023-02-28T06:32:21;103313.41;;;0.77;85.08
76866;BME280;66647;52.124;5.416;2023-02-28T06:34:48;103324.38;;;0.76;85.25
76866;BME280;66647;52.124;5.416;2023-02-28T06:37:17;103322.91;;;0.73;85.25
76866;BME280;66647;52.124;5.416;2023-02-28T06:39:47;103316.69;;;0.73;85.61
76866;BME280;66647;52.124;5.416;2023-02-28T06:42:13;103326.44;;;0.74;85.73
76866;BME280;66647;52.124;5.416;2023-02-28T06:44:43;103321.06;;;0.74;86.10
76866;BME280;66647;52.124;5.416;2023-02-28T06:47:10;103325.22;;;0.76;86.23
76866;BME280;66647;52.124;5.416;2023-02-28T06:49:37;103316.09;;;0.77;86.17
76866;BME280;66647;52.124;5.416;2023-02-28T06:52:04;103321.09;;;0.80;86.38
76866;BME280;66647;52.124;5.416;2023-02-28T06:54:31;103324.47;;;0.89;86.79
76866;BME280;66647;52.124;5.416;2023-02-28T06:56:58;103331.53;;;0.90;86.57
76866;BME280;66647;52.124;5.416;2023-02-28T06:59:24;103332.56;;;0.89;86.69
76866;BME280;66647;52.124;5.416;2023-02-28T07:01:51;103325.94;;;0.91;86.72
76866;BME280;66647;52.124;5.416;2023-02-28T07:04:18;103331.97;;;0.93;86.58
76866;BME280;66647;52.124;5.416;2023-02-28T07:06:45;103335.72;;;0.99;86.67
76866;BME280;66647;52.124;5.416;2023-02-28T07:09:11;103341.75;;;1.01;86.88
76866;BME280;66647;52.124;5.416;2023-02-28T07:11:41;103343.63;;;1.00;86.77
76866;BME280;66647;52.124;5.416;2023-02-28T07:14:09;103339.88;;;1.01;86.24
76866;BME280;66647;52.124;5.416;2023-02-28T07:16:35;103337.44;;;1.07;86.88
76866;BME280;66647;52.124;5.416;2023-02-28T07:19:04;103339.94;;;1.08;87.00
76866;BME280;66647;52.124;5.416;2023-02-28T07:21:31;103336.81;;;1.11;86.63
76866;BME280;66647;52.124;5.416;2023-02-28T07:23:58;103338.09;;;1.15;86.61
76866;BME280;66647;52.124;5.416;2023-02-28T07:26:24;103351.00;;;1.20;87.03
76866;BME280;66647;52.124;5.416;2023-02-28T07:28:51;103349.56;;;1.24;86.87
76866;BME280;66647;52.124;5.416;2023-02-28T07:31:17;103354.78;;;1.25;86.99
76866;BME280;66647;52.124;5.416;2023-02-28T07:33:45;103346.88;;;1.30;86.97
76866;BME280;66647;52.124;5.416;2023-02-28T07:36:15;103340.44;;;1.31;87.12
76866;BME280;66647;52.124;5.416;2023-02-28T07:38:46;103343.16;;;1.38;86.80
76866;BME280;66647;52.124;5.416;2023-02-28T07:41:19;103346.72;;;1.45;86.64
76866;BME280;66647;52.124;5.416;2023-02-28T07:43:48;103352.97;;;1.46;86.49
76866;BME280;66647;52.124;5.416;2023-02-28T07:46:16;103360.47;;;1.50;86.07
76866;BME280;66647;52.124;5.416;2023-02-28T07:48:44;103359.44;;;1.51;86.21
76866;BME280;66647;52.124;5.416;2023-02-28T07:51:14;103359.22;;;1.53;86.02
76866;BME280;66647;52.124;5.416;2023-02-28T07:53:40;103355.94;;;1.57;86.72
76866;BME280;66647;52.124;5.416;2023-02-28T07:56:07;103360.50;;;1.57;86.38
76866;BME280;66647;52.124;5.416;2023-02-28T07:58:42;103354.06;;;1.58;86.40
76866;BME280;66647;52.124;5.416;2023-02-28T08:01:10;103356.75;;;1.64;86.32
76866;BME280;66647;52.124;5.416;2023-02-28T08:03:40;103354.28;;;1.76;85.86
76866;BME280;66647;52.124;5.416;2023-02-28T08:09:24;103373.44;;;1.81;84.97
76866;BME280;66647;52.124;5.416;2023-02-28T08:12:06;103383.81;;;1.71;84.75
76866;BME280;66647;52.124;5.416;2023-02-28T08:14:34;103374.25;;;1.68;84.63
76866;BME280;66647;52.124;5.416;2023-02-28T08:20:38;103380.88;;;1.66;84.47
76866;BME280;66647;52.124;5.416;2023-02-28T08:23:26;103392.09;;;1.63;84.62
76866;BME280;66647;52.124;5.416;2023-02-28T08:26:10;103380.47;;;1.69;84.60
76866;BME280;66647;52.124;5.416;2023-02-28T08:28:37;103372.41;;;1.82;84.90
76866;BME280;66647;52.124;5.416;2023-02-28T08:31:27;103380.53;;;1.95;84.80
76866;BME280;66647;52.124;5.416;2023-02-28T08:33:54;103377.41;;;1.98;83.89
76866;BME280;66647;52.124;5.416;2023-02-28T08:36:25;103374.50;;;2.00;83.62
76866;BME280;66647;52.124;5.416;2023-02-28T08:38:56;103368.88;;;2.01;83.80
76866;BME280;66647;52.124;5.416;2023-02-28T08:41:23;103375.34;;;2.00;82.22
76866;BME280;66647;52.124;5.416;2023-02-28T08:43:49;103380.75;;;2.00;81.22
76866;BME280;66647;52.124;5.416;2023-02-28T08:46:16;103372.00;;;1.98;79.91
76866;BME280;66647;52.124;5.416;2023-02-28T08:48:45;103369.31;;;2.05;79.55
76866;BME280;66647;52.124;5.416;2023-02-28T08:51:15;103371.81;;;2.13;79.71
76866;BME280;66647;52.124;5.416;2023-02-28T08:53:48;103361.00;;;2.20;79.68
76866;BME280;66647;52.124;5.416;2023-02-28T08:56:18;103361.22;;;2.25;78.10
76866;BME280;66647;52.124;5.416;2023-02-28T08:58:46;103364.31;;;2.28;76.15
76866;BME280;66647;52.124;5.416;2023-02-28T09:01:16;103374.31;;;2.34;75.54
76866;BME280;66647;52.124;5.416;2023-02-28T09:03:43;103367.88;;;2.42;74.74
76866;BME280;66647;52.124;5.416;2023-02-28T09:06:13;103365.97;;;2.62;74.60
76866;BME280;66647;52.124;5.416;2023-02-28T09:08:40;103362.09;;;3.16;73.08
76866;BME280;66647;52.124;5.416;2023-02-28T09:11:08;103365.09;;;3.46;69.70
76866;BME280;66647;52.124;5.416;2023-02-28T09:13:39;103353.91;;;4.24;68.24
76866;BME280;66647;52.124;5.416;2023-02-28T09:16:11;103360.13;;;5.47;65.78
76866;BME280;66647;52.124;5.416;2023-02-28T09:18:38;103360.63;;;6.62;56.70
76866;BME280;66647;52.124;5.416;2023-02-28T09:21:07;103364.78;;;6.77;54.64
76866;BME280;66647;52.124;5.416;2023-02-28T09:23:35;103370.69;;;6.50;55.62
76866;BME280;66647;52.124;5.416;2023-02-28T09:26:04;103360.84;;;6.14;50.18
76866;BME280;66647;52.124;5.416;2023-02-28T09:28:31;103362.00;;;6.06;50.88
76866;BME280;66647;52.124;5.416;2023-02-28T09:30:57;103368.28;;;6.07;50.67
76866;BME280;66647;52.124;5.416;2023-02-28T09:33:27;103356.94;;;5.80;48.55
76866;BME280;66647;52.124;5.416;2023-02-28T09:35:59;103366.31;;;5.84;48.54
76866;BME280;66647;52.124;5.416;2023-02-28T09:38:29;103365.47;;;6.37;48.59
76866;BME280;66647;52.124;5.416;2023-02-28T09:40:58;103367.16;;;7.36;44.36
76866;BME280;66647;52.124;5.416;2023-02-28T09:43:29;103361.59;;;7.31;43.80
76866;BME280;66647;52.124;5.416;2023-02-28T09:46:05;103363.34;;;6.86;43.21
76866;BME280;66647;52.124;5.416;2023-02-28T09:48:41;103378.03;;;6.38;42.68
76866;BME280;66647;52.124;5.416;2023-02-28T09:53:47;103387.56;;;5.76;43.65
76866;BME280;66647;52.124;5.416;2023-02-28T09:56:30;103374.28;;;5.67;47.25
76866;BME280;66647;52.124;5.416;2023-02-28T10:01:49;103374.50;;;5.66;45.01
76866;BME280;66647;52.124;5.416;2023-02-28T10:06:52;103369.75;;;5.91;46.40
76866;BME280;66647;52.124;5.416;2023-02-28T10:09:26;103372.03;;;5.94;44.10
76866;BME280;66647;52.124;5.416;2023-02-28T10:12:00;103370.41;;;6.05;44.04
76866;BME280;66647;52.124;5.416;2023-02-28T10:14:32;103362.88;;;6.65;43.33
76866;BME280;66647;52.124;5.416;2023-02-28T10:17:04;103356.22;;;7.65;43.74
76866;BME280;66647;52.124;5.416;2023-02-28T10:19:42;103348.56;;;8.79;37.40
76866;BME280;66647;52.124;5.416;2023-02-28T10:22:16;103344.66;;;9.62;35.93
76866;BME280;66647;52.124;5.416;2023-02-28T10:24:46;103356.09;;;10.13;33.35
76866;BME280;66647;52.124;5.416;2023-02-28T10:27:22;103332.75;;;10.05;34.65
76866;BME280;66647;52.124;5.416;2023-02-28T10:29:51;103345.38;;;10.06;31.23
76866;BME280;66647;52.124;5.416;2023-02-28T10:32:31;103353.28;;;10.03;34.34
76866;BME280;66647;52.124;5.416;2023-02-28T10:35:17;103344.25;;;10.71;33.21
76866;BME280;66647;52.124;5.416;2023-02-28T10:37:47;103345.72;;;10.94;33.35
76866;BME280;66647;52.124;5.416;2023-02-28T10:43:13;103354.22;;;11.60;31.56
76866;BME280;66647;52.124;5.416;2023-02-28T10:46:05;103353.19;;;11.09;32.50
76866;BME280;66647;52.124;5.416;2023-02-28T10:48:41;103349.50;;;11.51;31.23
76866;BME280;66647;52.124;5.416;2023-02-28T10:51:14;103338.19;;;11.32;30.94
76866;BME280;66647;52.124;5.416;2023-02-28T10:56:26;103319.63;;;12.10;29.55
76866;BME280;66647;52.124;5.416;2023-02-28T11:01:43;103330.44;;;11.19;30.10
76866;BME280;66647;52.124;5.416;2023-02-28T11:04:20;103329.03;;;11.01;30.01
76866;BME280;66647;52.124;5.416;2023-02-28T11:07:05;103324.97;;;11.19;32.53
76866;BME280;66647;52.124;5.416;2023-02-28T11:09:58;103323.16;;;11.70;29.91
76866;BME280;66647;52.124;5.416;2023-02-28T11:12:38;103317.44;;;12.27;30.33
76866;BME280;66647;52.124;5.416;2023-02-28T11:20:39;103318.78;;;12.35;28.66
76866;BME280;66647;52.124;5.416;2023-02-28T11:23:12;103319.09;;;12.23;28.99
76866;BME280;66647;52.124;5.416;2023-02-28T11:25:50;103308.88;;;12.39;29.76
76866;BME280;66647;52.124;5.416;2023-02-28T11:28:33;103302.47;;;12.74;28.87
76866;BME280;66647;52.124;5.416;2023-02-28T11:33:55;103300.78;;;12.88;27.34
76866;BME280;66647;52.124;5.416;2023-02-28T11:36:29;103300.91;;;12.37;28.14
76866;BME280;66647;52.124;5.416;2023-02-28T11:38:59;103306.13;;;12.39;27.90
76866;BME280;66647;52.124;5.416;2023-02-28T11:41:34;103299.00;;;12.13;28.12
76866;BME280;66647;52.124;5.416;2023-02-28T11:47:47;103291.75;;;12.67;27.29
76866;BME280;66647;52.124;5.416;2023-02-28T11:50:00;103290.22;;;13.05;29.88
76866;BME280;66647;52.124;5.416;2023-02-28T11:52:43;103285.47;;;13.31;27.53
76866;BME280;66647;52.124;5.416;2023-02-28T11:55:27;103285.75;;;13.25;28.66
76866;BME280;66647;52.124;5.416;2023-02-28T12:04:09;103280.31;;;13.59;26.75
76866;BME280;66647;52.124;5.416;2023-02-28T12:06:55;103284.44;;;13.07;27.63
76866;BME280;66647;52.124;5.416;2023-02-28T12:12:49;103280.59;;;12.18;28.27
76866;BME280;66647;52.124;5.416;2023-02-28T12:15:38;103273.47;;;12.97;29.36
76866;BME280;66647;52.124;5.416;2023-02-28T12:20:53;103265.59;;;12.70;27.22
76866;BME280;66647;52.124;5.416;2023-02-28T12:26:41;103275.31;;;12.42;27.68
76866;BME280;66647;52.124;5.416;2023-02-28T12:31:53;103264.78;;;11.12;30.82
76866;BME280;66647;52.124;5.416;2023-02-28T12:34:28;103259.16;;;10.71;29.55
76866;BME280;66647;52.124;5.416;2023-02-28T12:37:06;103259.03;;;10.51;32.13
76866;BME280;66647;52.124;5.416;2023-02-28T12:39:41;103263.88;;;10.29;31.52
76866;BME280;66647;52.124;5.416;2023-02-28T12:42:27;103265.00;;;10.33;32.08
76866;BME280;66647;52.124;5.416;2023-02-28T12:45:22;103273.63;;;10.57;32.97
76866;BME280;66647;52.124;5.416;2023-02-28T12:47:58;103263.09;;;10.01;31.93
76866;BME280;66647;52.124;5.416;2023-02-28T12:50:29;103256.56;;;10.13;33.45
76866;BME280;66647;52.124;5.416;2023-02-28T12:53:06;103258.75;;;10.10;32.79
76866;BME280;66647;52.124;5.416;2023-02-28T12:55:48;103260.25;;;9.91;31.67
76866;BME280;66647;52.124;5.416;2023-02-28T13:01:16;103248.88;;;9.72;33.08
76866;BME280;66647;52.124;5.416;2023-02-28T13:09:16;103237.44;;;9.81;33.08
76866;BME280;66647;52.124;5.416;2023-02-28T13:11:46;103242.53;;;9.67;32.58
76866;BME280;66647;52.124;5.416;2023-02-28T13:14:23;103239.25;;;9.38;34.08
76866;BME280;66647;52.124;5.416;2023-02-28T13:17:00;103245.56;;;9.38;33.43
76866;BME280;66647;52.124;5.416;2023-02-28T13:19:31;103237.09;;;9.40;32.49
76866;BME280;66647;52.124;5.416;2023-02-28T13:21:59;103241.50;;;9.19;33.35
76866;BME280;66647;52.124;5.416;2023-02-28T13:29:40;103237.06;;;9.13;33.39
76866;BME280;66647;52.124;5.416;2023-02-28T13:39:53;103222.16;;;8.99;33.88
76866;BME280;66647;52.124;5.416;2023-02-28T13:42:30;103213.75;;;9.05;33.23
76866;BME280;66647;52.124;5.416;2023-02-28T13:47:38;103214.00;;;9.04;33.02
76866;BME280;66647;52.124;5.416;2023-02-28T13:50:27;103216.94;;;8.97;33.64
76866;BME280;66647;52.124;5.416;2023-02-28T14:01:09;103206.75;;;8.49;32.12
76866;BME280;66647;52.124;5.416;2023-02-28T14:06:35;103200.41;;;8.44;33.22
76866;BME280;66647;52.124;5.416;2023-02-28T14:09:15;103197.69;;;8.44;33.85
76866;BME280;66647;52.124;5.416;2023-02-28T14:11:44;103201.75;;;8.41;34.47
76866;BME280;66647;52.124;5.416;2023-02-28T14:17:08;103196.28;;;8.41;33.97
76866;BME280;66647;52.124;5.416;2023-02-28T14:19:39;103190.16;;;8.34;34.11
76866;BME280;66647;52.124;5.416;2023-02-28T14:27:49;103183.88;;;8.33;34.68
76866;BME280;66647;52.124;5.416;2023-02-28T14:36:04;103175.06;;;8.31;34.28
76866;BME280;66647;52.124;5.416;2023-02-28T14:39:12;103186.28;;;8.13;34.20
76866;BME280;66647;52.124;5.416;2023-02-28T14:41:41;103176.38;;;8.07;35.17
76866;BME280;66647;52.124;5.416;2023-02-28T14:44:18;103183.59;;;7.96;34.98
76866;BME280;66647;52.124;5.416;2023-02-28T14:46:47;103181.94;;;7.95;35.63
76866;BME280;66647;52.124;5.416;2023-02-28T14:49:20;103179.75;;;7.75;35.46
76866;BME280;66647;52.124;5.416;2023-02-28T14:51:50;103169.78;;;7.86;36.19
76866;BME280;66647;52.124;5.416;2023-02-28T14:54:21;103169.16;;;7.79;36.47
76866;BME280;66647;52.124;5.416;2023-02-28T14:56:50;103179.50;;;7.77;36.23
76866;BME280;66647;52.124;5.416;2023-02-28T14:59:33;103179.75;;;7.75;35.41
76866;BME280;66647;52.124;5.416;2023-02-28T15:04:53;103179.25;;;7.62;35.77
76866;BME280;66647;52.124;5.416;2023-02-28T15:07:22;103174.50;;;7.57;36.86
76866;BME280;66647;52.124;5.416;2023-02-28T15:12:57;103178.81;;;7.36;36.21
76866;BME280;66647;52.124;5.416;2023-02-28T15:15:43;103182.28;;;7.32;36.42
76866;BME280;66647;52.124;5.416;2023-02-28T15:21:25;103180.13;;;7.34;36.55
76866;BME280;66647;52.124;5.416;2023-02-28T15:24:46;103178.97;;;7.30;36.50
76866;BME280;66647;52.124;5.416;2023-02-28T15:26:57;103178.97;;;7.30;37.68
76866;BME280;66647;52.124;5.416;2023-02-28T15:29:46;103191.31;;;7.32;37.65
76866;BME280;66647;52.124;5.416;2023-02-28T15:32:30;103187.41;;;7.28;36.71
76866;BME280;66647;52.124;5.416;2023-02-28T15:34:59;103176.97;;;7.25;37.89
76866;BME280;66647;52.124;5.416;2023-02-28T15:37:54;103180.09;;;7.17;36.75